Time;durP1;ratioP1;P1;durP2;ratioP2;P2;SDS_P1;SDS_P2;PMS_P1;PMS_P2;Temp;Humidity;BMP_temperature;BMP_pressure;BME280_temperature;BME280_humidity;BME280_pressure;Samples;Min_cycle;Max_cycle;Signal;HPM_P1;HPM_P2
2022/01/31 00:00:34;;;;;;;1.10;1.10;;;;;;;1.82;100.00;100833.47;5017026;28;20053;-79
2022/01/31 00:03:07;;;;;;;1.10;1.10;;;;;;;1.85;100.00;100838.41;5016306;28;20053;-79
2022/01/31 00:05:41;;;;;;;1.10;1.10;;;;;;;1.87;100.00;100822.09;5008688;28;20057;-79
2022/01/31 00:08:14;;;;;;;1.15;1.15;;;;;;;1.85;100.00;100819.63;5007838;28;20378;-79
2022/01/31 00:10:49;;;;;;;1.10;1.10;;;;;;;1.80;100.00;100811.41;5008494;28;20053;-79
2022/01/31 00:13:27;;;;;;;1.20;1.20;;;;;;;1.81;100.00;100799.63;5007720;28;20101;-80
2022/01/31 00:16:01;;;;;;;1.08;1.08;;;;;;;1.78;100.00;100789.34;5005608;28;20057;-79
2022/01/31 00:18:35;;;;;;;1.20;1.20;;;;;;;1.86;100.00;100778.34;5004663;28;20050;-80
2022/01/31 00:21:08;;;;;;;1.23;1.23;;;;;;;1.76;100.00;100769.94;5010451;28;20065;-78
2022/01/31 00:23:36;;;;;;;1.50;1.40;;;;;;;1.76;100.00;100769.94;5008640;28;20065;-79
2022/01/31 00:26:06;;;;;;;1.23;1.23;;;;;;;1.70;100.00;100766.28;5009183;28;20046;-80
2022/01/31 00:28:39;;;;;;;1.60;1.50;;;;;;;1.78;100.00;100757.13;5007814;28;20046;-80
2022/01/31 00:31:12;;;;;;;1.60;1.50;;;;;;;1.68;100.00;100752.25;5011352;28;20049;-80
2022/01/31 00:33:40;;;;;;;1.50;1.40;;;;;;;1.75;100.00;100746.00;5003835;28;20395;-79
2022/01/31 00:36:09;;;;;;;1.33;1.33;;;;;;;1.64;100.00;100743.00;5007447;28;20120;-79
2022/01/31 00:38:42;;;;;;;1.20;1.20;;;;;;;1.67;100.00;100731.84;5010154;28;20065;-80
2022/01/31 00:41:11;;;;;;;1.60;1.50;;;;;;;1.72;100.00;100723.13;5009860;28;20046;-80
2022/01/31 00:43:55;;;;;;;1.58;1.48;;;;;;;1.67;100.00;100709.53;5012751;28;20065;-80
2022/01/31 00:46:35;;;;;;;1.50;1.40;;;;;;;1.72;100.00;100692.81;5006700;28;20061;-80
2022/01/31 00:49:03;;;;;;;1.65;1.55;;;;;;;1.66;100.00;100681.09;5007935;28;20061;-80
2022/01/31 00:51:37;;;;;;;1.35;1.35;;;;;;;1.71;100.00;100670.50;5009667;28;20049;-79
2022/01/31 00:54:10;;;;;;;1.45;1.35;;;;;;;1.66;100.00;100665.00;5008995;28;20497;-80
2022/01/31 00:56:44;;;;;;;1.60;1.50;;;;;;;1.68;100.00;100644.94;5009549;28;20042;-79
2022/01/31 00:59:13;;;;;;;1.35;1.33;;;;;;;1.70;100.00;100648.22;5006587;28;20049;-79
2022/01/31 01:01:46;;;;;;;1.52;1.42;;;;;;;1.60;100.00;100623.78;5008436;28;20504;-79
2022/01/31 01:04:20;;;;;;;1.42;1.35;;;;;;;1.61;100.00;100625.41;5007770;28;20057;-80
2022/01/31 01:06:53;;;;;;;1.40;1.35;;;;;;;1.66;100.00;100608.66;5025100;28;20465;-80
2022/01/31 01:09:21;;;;;;;1.40;1.35;;;;;;;1.63;100.00;100601.88;5040456;28;20069;-79
2022/01/31 01:11:55;;;;;;;1.60;1.50;;;;;;;1.58;100.00;100599.03;5008054;28;20041;-79
2022/01/31 01:14:29;;;;;;;1.70;1.60;;;;;;;1.65;100.00;100586.34;5010592;28;20540;-79
2022/01/31 01:17:02;;;;;;;1.80;1.70;;;;;;;1.62;100.00;100577.94;5008763;28;20042;-81
2022/01/31 01:19:35;;;;;;;1.60;1.50;;;;;;;1.55;100.00;100566.44;5011000;28;20049;-78
2022/01/31 01:22:08;;;;;;;1.45;1.38;;;;;;;1.49;100.00;100557.44;5013861;28;20054;-81
2022/01/31 01:24:37;;;;;;;1.65;1.55;;;;;;;1.42;100.00;100544.09;5009268;28;20076;-82
2022/01/31 01:27:15;;;;;;;1.30;1.30;;;;;;;1.39;100.00;100552.59;5008716;28;20046;-81
2022/01/31 01:29:43;;;;;;;1.50;1.40;;;;;;;1.40;100.00;100537.34;5009775;28;20050;-80
2022/01/31 01:32:18;;;;;;;1.90;1.80;;;;;;;1.31;100.00;100513.50;5009977;28;20502;-80
2022/01/31 01:34:46;;;;;;;1.30;1.30;;;;;;;1.42;100.00;100513.78;5039240;28;20070;-80
2022/01/31 01:37:15;;;;;;;1.70;1.60;;;;;;;1.36;100.00;100507.47;5008517;28;20042;-80
2022/01/31 01:39:48;;;;;;;1.60;1.50;;;;;;;1.32;100.00;100503.56;5002995;28;20057;-79
2022/01/31 01:42:23;;;;;;;1.70;1.60;;;;;;;1.27;100.00;100496.22;5004281;28;20061;-80
2022/01/31 01:44:56;;;;;;;1.60;1.50;;;;;;;1.35;100.00;100495.94;5008373;28;20061;-80
2022/01/31 01:47:27;;;;;;;1.75;1.65;;;;;;;1.29;100.00;100475.34;5007463;28;20046;-80
2022/01/31 01:50:00;;;;;;;1.75;1.65;;;;;;;1.28;100.00;100462.16;5008631;28;20056;-80
2022/01/31 01:52:33;;;;;;;1.80;1.70;;;;;;;1.22;100.00;100457.72;5006882;28;20124;-80
2022/01/31 01:55:08;;;;;;;1.70;1.60;;;;;;;1.24;100.00;100451.06;5004819;28;20045;-80
2022/01/31 01:57:44;;;;;;;1.70;1.60;;;;;;;1.27;100.00;100436.41;5008090;28;20049;-79
2022/01/31 02:00:24;;;;;;;2.00;1.90;;;;;;;1.29;100.00;100404.84;5008869;28;20743;-80
2022/01/31 02:02:57;;;;;;;1.65;1.55;;;;;;;1.29;100.00;100389.56;5011127;28;20045;-80
2022/01/31 02:05:25;;;;;;;1.80;1.70;;;;;;;1.29;100.00;100389.56;5008061;28;20065;-80
2022/01/31 02:07:59;;;;;;;1.73;1.63;;;;;;;1.17;100.00;100384.16;5013712;28;20058;-80
2022/01/31 02:10:28;;;;;;;1.75;1.65;;;;;;;1.26;100.00;100389.22;5005435;28;20799;-80
2022/01/31 02:13:12;;;;;;;1.90;1.80;;;;;;;1.21;100.00;100370.28;5006383;28;20065;-79
2022/01/31 02:16:06;;;;;;;1.60;1.50;;;;;;;1.14;100.00;100362.34;5009038;28;20069;-80
2022/01/31 02:18:54;;;;;;;1.80;1.70;;;;;;;1.05;100.00;100361.81;5027154;28;20076;-80
2022/01/31 02:21:55;;;;;;;1.80;1.70;;;;;;;1.11;100.00;100368.16;5005204;28;20131;-80
2022/01/31 02:24:43;;;;;;;1.95;1.85;;;;;;;1.08;100.00;100357.84;5005522;28;20061;-80
2022/01/31 02:27:27;;;;;;;1.55;1.45;;;;;;;0.97;100.00;100332.66;5009573;28;20525;-80
2022/01/31 02:30:06;;;;;;;1.60;1.50;;;;;;;1.01;100.00;100340.00;5005009;28;20490;-81
2022/01/31 02:32:44;;;;;;;1.70;1.60;;;;;;;1.05;100.00;100334.19;5006763;28;20046;-80
2022/01/31 02:35:18;;;;;;;1.90;1.80;;;;;;;1.06;100.00;100323.25;5006760;28;20062;-80
2022/01/31 02:37:52;;;;;;;1.73;1.63;;;;;;;1.09;100.00;100316.63;5006595;28;20061;-80
2022/01/31 02:40:28;;;;;;;1.90;1.80;;;;;;;1.08;100.00;100309.63;5009797;28;20041;-80
2022/01/31 02:43:05;;;;;;;1.87;1.77;;;;;;;1.01;100.00;100317.75;5019515;28;20058;-80
2022/01/31 02:45:39;;;;;;;1.70;1.60;;;;;;;0.95;100.00;100300.72;5006877;28;20404;-80
2022/01/31 02:48:14;;;;;;;1.70;1.60;;;;;;;1.10;100.00;100303.00;5003395;28;20054;-80
2022/01/31 02:50:47;;;;;;;1.92;1.83;;;;;;;1.08;100.00;100298.91;5041432;28;20057;-81
2022/01/31 02:53:25;;;;;;;1.85;1.75;;;;;;;1.10;100.00;100300.31;5008086;28;20313;-80
2022/01/31 02:56:01;;;;;;;1.65;1.55;;;;;;;1.08;100.00;100297.06;5004489;28;20053;-80
2022/01/31 02:58:35;;;;;;;1.90;1.80;;;;;;;1.06;100.00;100280.38;5007190;28;20042;-80
2022/01/31 03:01:08;;;;;;;1.65;1.55;;;;;;;1.07;100.00;100279.31;5036813;28;20074;-79
2022/01/31 03:03:42;;;;;;;1.90;1.80;;;;;;;1.11;100.00;100269.78;5004409;28;20394;-80
2022/01/31 03:06:15;;;;;;;1.70;1.60;;;;;;;1.06;100.00;100253.56;5007867;28;20050;-80
2022/01/31 03:08:50;;;;;;;1.70;1.60;;;;;;;1.06;100.00;100248.22;5026468;28;20049;-80
2022/01/31 03:11:22;;;;;;;1.90;1.80;;;;;;;1.08;100.00;100237.25;5009907;28;20410;-80
2022/01/31 03:14:03;;;;;;;1.90;1.80;;;;;;;1.16;100.00;100231.56;5010190;28;20049;-80
2022/01/31 03:16:41;;;;;;;1.80;1.70;;;;;;;1.07;100.00;100222.25;5009071;28;20053;-80
2022/01/31 03:19:19;;;;;;;1.60;1.50;;;;;;;1.08;100.00;100210.44;5008454;28;20069;-81
2022/01/31 03:22:00;;;;;;;1.73;1.63;;;;;;;1.09;100.00;100209.41;5014448;28;20046;-80
2022/01/31 03:24:36;;;;;;;1.80;1.70;;;;;;;1.16;100.00;100212.81;5026738;28;20061;-80
2022/01/31 03:27:09;;;;;;;1.80;1.70;;;;;;;1.17;100.00;100193.00;5009315;28;20062;-79
2022/01/31 03:29:42;;;;;;;1.80;1.70;;;;;;;1.13;100.00;100194.50;5009664;28;20057;-80
2022/01/31 03:32:15;;;;;;;1.83;1.73;;;;;;;1.15;100.00;100192.44;5010462;28;20049;-80
2022/01/31 03:34:49;;;;;;;1.90;1.80;;;;;;;1.18;100.00;100186.63;5011662;28;20510;-80
2022/01/31 03:37:17;;;;;;;1.73;1.63;;;;;;;1.14;100.00;100191.59;5009066;28;20499;-80
2022/01/31 03:39:47;;;;;;;1.70;1.60;;;;;;;0.99;100.00;100175.13;5012548;28;20060;-80
2022/01/31 03:42:18;;;;;;;1.67;1.58;;;;;;;0.78;100.00;100163.88;5042538;28;20054;-80
2022/01/31 03:44:51;;;;;;;1.80;1.70;;;;;;;0.79;100.00;100149.47;5009009;28;20049;-80
2022/01/31 03:47:24;;;;;;;1.65;1.55;;;;;;;0.65;100.00;100132.75;5026201;28;20054;-81
2022/01/31 03:49:58;;;;;;;2.00;1.90;;;;;;;0.57;100.00;100122.38;5011350;28;20046;-80
2022/01/31 03:52:28;;;;;;;2.20;2.10;;;;;;;0.69;100.00;100111.69;5008772;28;20396;-80
2022/01/31 03:55:03;;;;;;;2.50;2.40;;;;;;;0.64;100.00;100093.63;5009345;28;20046;-80
2022/01/31 03:57:36;;;;;;;2.40;2.30;;;;;;;0.72;100.00;100091.66;5009842;28;20061;-80
2022/01/31 04:00:32;;;;;;;2.80;2.60;;;;;;;0.67;100.00;100070.94;5016287;28;20054;-80
2022/01/31 04:03:06;;;;;;;2.92;2.72;;;;;;;0.70;100.00;100072.34;5014302;28;20054;-80
2022/01/31 04:05:39;;;;;;;2.35;2.25;;;;;;;0.73;100.00;100055.81;5018606;28;20529;-80
2022/01/31 04:08:12;;;;;;;2.40;2.30;;;;;;;0.76;100.00;100045.47;5009318;28;20054;-80
2022/01/31 04:10:42;;;;;;;2.70;2.50;;;;;;;0.71;100.00;100039.16;5011397;28;20065;-80
2022/01/31 04:13:18;;;;;;;2.80;2.60;;;;;;;0.84;100.00;100031.72;5013991;28;20057;-80
2022/01/31 04:15:51;;;;;;;2.67;2.50;;;;;;;0.83;100.00;100018.56;5013155;28;20054;-80
2022/01/31 04:18:24;;;;;;;2.80;2.60;;;;;;;0.88;100.00;100009.84;5017447;28;20062;-80
2022/01/31 04:20:52;;;;;;;2.72;2.55;;;;;;;0.77;100.00;100006.09;5012525;28;20466;-80
2022/01/31 04:23:27;;;;;;;2.55;2.45;;;;;;;0.74;100.00;99998.53;5016418;28;20062;-80
2022/01/31 04:26:11;;;;;;;2.83;2.63;;;;;;;0.70;100.00;99995.47;5013499;28;20402;-81
2022/01/31 04:28:46;;;;;;;2.72;2.53;;;;;;;0.64;100.00;99983.03;5014566;28;20064;-81
2022/01/31 04:31:37;;;;;;;2.80;2.60;;;;;;;0.70;100.00;99982.09;5010442;28;20072;-79
2022/01/31 04:34:10;;;;;;;3.28;3.08;;;;;;;0.67;100.00;99978.00;5013331;28;20057;-80
2022/01/31 04:36:38;;;;;;;3.00;2.80;;;;;;;0.70;100.00;99966.03;5010298;28;20053;-80
2022/01/31 04:39:16;;;;;;;3.30;3.10;;;;;;;0.71;100.00;99959.63;5013515;28;20494;-81
2022/01/31 04:41:51;;;;;;;3.25;3.05;;;;;;;0.70;100.00;99955.31;5004865;28;20053;-80
2022/01/31 04:44:19;;;;;;;3.20;3.00;;;;;;;0.71;100.00;99945.44;5012391;28;20046;-80
2022/01/31 04:46:53;;;;;;;3.25;3.05;;;;;;;0.69;100.00;99940.28;5013228;28;20061;-80
2022/01/31 04:49:26;;;;;;;3.10;2.90;;;;;;;0.80;100.00;99930.63;5010322;28;20046;-80
2022/01/31 04:51:59;;;;;;;2.90;2.70;;;;;;;0.80;100.00;99930.63;5013757;28;20418;-80
2022/01/31 04:54:27;;;;;;;2.92;2.72;;;;;;;0.77;100.00;99915.81;5010094;28;20433;-80
2022/01/31 04:56:57;;;;;;;3.33;3.13;;;;;;;0.80;100.00;99906.50;5008019;28;20049;-80
2022/01/31 04:59:30;;;;;;;3.08;2.88;;;;;;;0.79;100.00;99904.91;5013069;28;20045;-80
2022/01/31 05:02:04;;;;;;;3.08;2.88;;;;;;;0.79;100.00;99894.19;5010782;28;20057;-80
2022/01/31 05:04:32;;;;;;;3.50;3.30;;;;;;;0.78;100.00;99879.97;5009159;28;20058;-80
2022/01/31 05:07:05;;;;;;;3.08;2.88;;;;;;;0.76;100.00;99873.22;5014772;28;20519;-80
2022/01/31 05:09:38;;;;;;;3.20;3.00;;;;;;;0.75;100.00;99868.94;5013438;28;20041;-80
2022/01/31 05:12:13;;;;;;;3.22;3.03;;;;;;;0.74;100.00;99865.41;5010824;28;20050;-80
2022/01/31 05:14:46;;;;;;;3.30;3.10;;;;;;;0.77;100.00;99861.47;5009876;28;20057;-80
2022/01/31 05:17:19;;;;;;;3.00;2.80;;;;;;;0.75;100.00;99858.22;5013074;28;20058;-80
2022/01/31 05:19:52;;;;;;;3.28;3.08;;;;;;;0.68;100.00;99848.44;5010752;28;20050;-80
2022/01/31 05:22:25;;;;;;;3.40;3.20;;;;;;;0.66;100.00;99849.72;5012388;28;20056;-81
2022/01/31 05:24:59;;;;;;;3.13;2.92;;;;;;;0.65;100.00;99834.72;5010448;28;20049;-81
2022/01/31 05:27:33;;;;;;;3.35;3.15;;;;;;;0.66;100.00;99822.94;5009904;28;20049;-80
2022/01/31 05:30:08;;;;;;;3.50;3.30;;;;;;;0.64;100.00;99815.13;5011936;28;20517;-81
2022/01/31 05:32:41;;;;;;;3.42;3.22;;;;;;;0.66;100.00;99821.09;5018566;28;20058;-80
2022/01/31 05:35:14;;;;;;;3.50;3.30;;;;;;;0.64;100.00;99825.84;5015280;28;20053;-81
2022/01/31 05:37:47;;;;;;;3.42;3.22;;;;;;;0.57;100.00;99816.31;5010566;28;20054;-80
2022/01/31 05:40:21;;;;;;;3.70;3.50;;;;;;;0.60;100.00;99818.53;5014932;28;20053;-81
2022/01/31 05:42:55;;;;;;;3.78;3.58;;;;;;;0.71;100.00;99806.97;5013398;28;20045;-80
2022/01/31 05:45:29;;;;;;;3.85;3.60;;;;;;;0.57;100.00;99794.91;5012260;28;20072;-80
2022/01/31 05:48:02;;;;;;;3.67;3.47;;;;;;;0.54;100.00;99787.31;5009327;28;20053;-80
2022/01/31 05:50:35;;;;;;;3.90;3.65;;;;;;;0.47;100.00;99796.31;5009335;28;20058;-81
2022/01/31 05:53:08;;;;;;;4.20;3.90;;;;;;;0.49;100.00;99780.00;5014324;28;20054;-80
2022/01/31 05:55:36;;;;;;;4.13;3.83;;;;;;;0.39;100.00;99775.25;5007030;28;20050;-80
2022/01/31 05:58:11;;;;;;;4.53;4.22;;;;;;;0.47;100.00;99777.56;5011465;28;20057;-80
2022/01/31 06:00:44;;;;;;;3.47;3.28;;;;;;;0.46;100.00;99777.81;5004527;28;20046;-80
2022/01/31 06:03:17;;;;;;;4.15;3.85;;;;;;;0.50;100.00;99765.59;5006808;28;20514;-80
2022/01/31 06:05:45;;;;;;;4.57;4.28;;;;;;;0.45;100.00;99768.13;5009029;28;20084;-79
2022/01/31 06:08:18;;;;;;;4.35;4.05;;;;;;;0.42;100.00;99761.38;5010447;28;20057;-80
2022/01/31 06:10:51;;;;;;;4.82;4.53;;;;;;;0.43;100.00;99755.00;5008083;28;20046;-80
2022/01/31 06:13:29;;;;;;;4.55;4.25;;;;;;;0.41;100.00;99746.38;5004066;28;20410;-80
2022/01/31 06:16:03;;;;;;;4.90;4.60;;;;;;;0.44;100.00;99745.91;5002920;28;20053;-80
2022/01/31 06:18:31;;;;;;;5.10;4.75;;;;;;;0.44;100.00;99740.56;5007271;28;20058;-81
2022/01/31 06:21:04;;;;;;;4.85;4.55;;;;;;;0.50;100.00;99734.25;5009230;28;20056;-80
2022/01/31 06:23:38;;;;;;;5.20;4.80;;;;;;;0.49;100.00;99731.81;5007137;28;20053;-79
2022/01/31 06:26:11;;;;;;;5.57;5.18;;;;;;;0.53;100.00;99740.19;5009474;28;20487;-80
2022/01/31 06:28:42;;;;;;;5.30;4.90;;;;;;;0.49;100.00;99735.31;5006226;28;20475;-80
2022/01/31 06:31:32;;;;;;;5.00;4.68;;;;;;;0.51;100.00;99732.38;5023813;28;20042;-80
2022/01/31 06:34:06;;;;;;;5.57;5.18;;;;;;;0.51;100.00;99724.34;5008586;28;20510;-80
2022/01/31 06:36:39;;;;;;;5.57;5.18;;;;;;;0.46;100.00;99725.06;5007094;28;20069;-80
2022/01/31 06:39:13;;;;;;;4.75;4.45;;;;;;;0.52;100.00;99725.19;5006303;28;20049;-81
2022/01/31 06:41:46;;;;;;;4.97;4.68;;;;;;;0.48;100.00;99717.63;5009931;28;20049;-82
2022/01/31 06:44:21;;;;;;;4.95;4.65;;;;;;;0.47;100.00;99720.53;5006284;28;20073;-79
2022/01/31 06:46:54;;;;;;;4.63;4.32;;;;;;;0.44;100.00;99704.94;5010072;28;20061;-81
2022/01/31 06:49:27;;;;;;;5.00;4.70;;;;;;;0.41;100.00;99711.56;5010766;28;20049;-80
2022/01/31 06:51:55;;;;;;;5.47;5.07;;;;;;;0.34;100.00;99708.22;5009143;28;20051;-80
2022/01/31 06:54:28;;;;;;;4.65;4.35;;;;;;;0.30;100.00;99712.41;5010881;28;20049;-81
2022/01/31 06:57:03;;;;;;;5.32;4.93;;;;;;;0.27;100.00;99697.63;5009723;28;20061;-84
2022/01/31 06:59:37;;;;;;;5.63;5.22;;;;;;;0.24;100.00;99698.13;5019751;28;20046;-81
2022/01/31 07:02:05;;;;;;;5.53;5.13;;;;;;;0.18;100.00;99688.38;5009935;28;20053;-82
2022/01/31 07:04:33;;;;;;;5.90;5.50;;;;;;;0.15;100.00;99691.50;5010160;28;20100;-80
2022/01/31 07:07:07;;;;;;;6.20;5.80;;;;;;;0.15;100.00;99678.94;5009234;28;20053;-80
2022/01/31 07:09:42;;;;;;;6.57;6.07;;;;;;;0.09;100.00;99679.88;4999239;28;20057;-80
2022/01/31 07:12:17;;;;;;;6.10;5.70;;;;;;;0.04;100.00;99679.75;5004344;28;20494;-80
2022/01/31 07:14:51;;;;;;;6.53;6.03;;;;;;;0.04;100.00;99676.28;4994837;28;20050;-80
2022/01/31 07:17:24;;;;;;;7.30;6.80;;;;;;;-0.07;100.00;99662.69;4995857;28;20065;-80
2022/01/31 07:19:58;;;;;;;7.45;6.95;;;;;;;0.05;100.00;99672.56;4991097;28;20054;-80
2022/01/31 07:22:36;;;;;;;7.40;6.90;;;;;;;0.08;100.00;99672.09;4989946;28;20049;-81
2022/01/31 07:25:20;;;;;;;8.38;7.78;;;;;;;0.00;100.00;99667.94;4997581;28;20639;-80
2022/01/31 07:27:48;;;;;;;7.88;7.32;;;;;;;0.01;100.00;99658.03;5008375;28;20418;-84
2022/01/31 07:30:23;;;;;;;8.07;7.47;;;;;;;-0.03;100.00;99665.69;5021828;28;20077;-81
2022/01/31 07:32:51;;;;;;;7.72;7.22;;;;;;;-0.05;100.00;99662.47;4992926;28;20513;-80
2022/01/31 07:35:25;;;;;;;8.93;8.32;;;;;;;-0.06;100.00;99658.97;4988560;28;20075;-80
2022/01/31 07:37:58;;;;;;;8.60;8.00;;;;;;;-0.11;100.00;99656.19;4988137;28;20045;-80
2022/01/31 07:40:31;;;;;;;9.32;8.73;;;;;;;-0.16;100.00;99650.72;4994131;28;20101;-79
2022/01/31 07:43:05;;;;;;;8.65;8.05;;;;;;;-0.07;100.00;99656.53;4990987;28;20061;-81
2022/01/31 07:45:40;;;;;;;9.43;8.82;;;;;;;-0.15;100.00;99651.53;4990935;28;20068;-79
2022/01/31 07:48:13;;;;;;;9.65;8.98;;;;;;;-0.15;100.00;99651.53;4996788;28;20054;-80
2022/01/31 07:50:42;;;;;;;9.85;9.15;;;;;;;-0.10;100.00;99644.44;4992847;28;20061;-80
2022/01/31 07:53:15;;;;;;;10.15;9.45;;;;;;;-0.12;100.00;99637.72;4994132;28;20065;-80
2022/01/31 07:55:43;;;;;;;12.10;11.30;;;;;;;-0.10;100.00;99638.28;4996533;28;20045;-78
2022/01/31 07:58:12;;;;;;;12.07;11.27;;;;;;;-0.12;100.00;99646.53;4994211;28;20042;-79
2022/01/31 08:00:46;;;;;;;11.23;10.52;;;;;;;-0.11;100.00;99642.81;4994818;28;20050;-80
2022/01/31 08:03:20;;;;;;;11.48;10.73;;;;;;;-0.15;100.00;99640.84;4996701;28;20054;-80
2022/01/31 08:05:53;;;;;;;12.30;11.50;;;;;;;-0.15;100.00;99620.28;4995656;28;20049;-82
2022/01/31 08:08:21;;;;;;;13.00;12.20;;;;;;;-0.08;100.00;99620.16;4990832;28;20053;-81
2022/01/31 08:10:54;;;;;;;13.88;13.00;;;;;;;-0.02;100.00;99629.88;4992915;28;20053;-81
2022/01/31 08:13:28;;;;;;;14.68;13.77;;;;;;;-0.05;100.00;99623.16;4999209;28;21303;-81
2022/01/31 08:16:09;;;;;;;15.00;14.10;;;;;;;-0.07;100.00;99624.44;4990281;28;20407;-81
2022/01/31 08:18:39;;;;;;;15.75;14.80;;;;;;;-0.04;100.00;99627.47;4991344;28;20057;-80
2022/01/31 08:21:15;;;;;;;16.30;15.30;;;;;;;-0.01;100.00;99629.66;4991456;28;20050;-80
2022/01/31 08:23:48;;;;;;;16.00;15.02;;;;;;;-0.06;100.00;99626.88;4988028;28;20061;-80
2022/01/31 08:26:21;;;;;;;17.70;16.65;;;;;;;-0.02;100.00;99628.03;4990798;28;20064;-80
2022/01/31 08:28:55;;;;;;;17.17;16.17;;;;;;;0.03;100.00;99634.53;4994919;28;20050;-80
2022/01/31 08:31:32;;;;;;;19.70;18.58;;;;;;;0.02;100.00;99631.03;4987539;28;20057;-81
2022/01/31 08:34:20;;;;;;;19.42;18.33;;;;;;;0.07;100.00;99636.50;4989067;28;20058;-80
2022/01/31 08:36:53;;;;;;;19.98;18.80;;;;;;;0.13;100.00;99640.09;5010869;28;20064;-80
2022/01/31 08:39:26;;;;;;;21.30;20.10;;;;;;;0.14;100.00;99628.34;4992910;28;20046;-80
2022/01/31 08:41:59;;;;;;;21.77;20.55;;;;;;;0.14;100.00;99621.13;4988750;28;20053;-80
2022/01/31 08:44:33;;;;;;;21.98;20.70;;;;;;;0.20;100.00;99629.28;4989967;28;20058;-80
2022/01/31 08:47:04;;;;;;;22.92;21.63;;;;;;;0.24;100.00;99615.16;4989293;28;20056;-80
2022/01/31 08:49:37;;;;;;;24.35;22.95;;;;;;;0.29;100.00;99617.13;4988305;28;20116;-80
2022/01/31 08:52:10;;;;;;;24.08;22.70;;;;;;;0.30;100.00;99600.03;4983118;28;20057;-79
2022/01/31 08:54:44;;;;;;;25.45;24.05;;;;;;;0.36;100.00;99612.47;4990411;28;20067;-80
2022/01/31 08:57:17;;;;;;;28.80;27.20;;;;;;;0.31;100.00;99612.34;4988307;28;20053;-80
2022/01/31 08:59:52;;;;;;;27.30;25.80;;;;;;;0.33;100.00;99615.59;4993911;28;20050;-81
2022/01/31 09:02:31;;;;;;;32.00;30.25;;;;;;;0.37;100.00;99607.91;4990550;28;20058;-80
2022/01/31 09:05:04;;;;;;;30.85;29.15;;;;;;;0.38;100.00;99615.69;4987358;28;20054;-80
2022/01/31 09:07:38;;;;;;;30.45;28.75;;;;;;;0.38;100.00;99610.34;4987512;28;20042;-81
2022/01/31 09:10:11;;;;;;;33.08;31.27;;;;;;;0.52;100.00;99620.78;4990863;28;20057;-81
2022/01/31 09:12:45;;;;;;;35.00;33.10;;;;;;;0.55;100.00;99618.41;4988546;28;20055;-81
2022/01/31 09:15:13;;;;;;;36.83;34.83;;;;;;;0.49;100.00;99608.69;4991963;28;20053;-80
2022/01/31 09:17:48;;;;;;;36.33;34.33;;;;;;;0.65;100.00;99617.81;4990660;28;20104;-80
2022/01/31 09:20:17;;;;;;;39.13;37.03;;;;;;;0.59;100.00;99629.47;4990929;28;20054;-80
2022/01/31 09:22:50;;;;;;;39.53;37.42;;;;;;;0.65;100.00;99615.94;4995622;28;20180;-80
2022/01/31 09:25:18;;;;;;;39.28;37.15;;;;;;;0.67;100.00;99613.81;4989224;28;20068;-80
2022/01/31 09:27:51;;;;;;;43.42;41.13;;;;;;;0.63;100.00;99615.34;4989560;28;20054;-80
2022/01/31 09:30:21;;;;;;;42.60;40.30;;;;;;;0.65;100.00;99621.28;4991962;28;20065;-80
2022/01/31 09:32:57;;;;;;;42.67;40.38;;;;;;;0.67;100.00;99610.34;4982421;28;20038;-80
2022/01/31 09:35:30;;;;;;;41.85;39.60;;;;;;;0.72;100.00;99612.28;4982777;28;20046;-80
2022/01/31 09:37:58;;;;;;;44.08;41.72;;;;;;;0.71;100.00;99605.31;4979845;28;20423;-81
2022/01/31 09:40:32;;;;;;;45.10;42.70;;;;;;;0.66;100.00;99608.69;4987138;28;20062;-80
2022/01/31 09:43:29;;;;;;;45.58;43.13;;;;;;;0.77;100.00;99615.84;4979095;28;20057;-80
2022/01/31 09:46:04;;;;;;;50.60;47.88;;;;;;;0.77;100.00;99607.81;4979087;28;20042;-80
2022/01/31 09:48:35;;;;;;;52.78;49.97;;;;;;;0.86;100.00;99613.63;4981587;28;20049;-80
2022/01/31 09:51:11;;;;;;;58.35;55.22;;;;;;;0.84;100.00;99619.22;4976889;28;20045;-81
2022/01/31 09:53:47;;;;;;;60.75;57.50;;;;;;;0.91;100.00;99623.59;4979556;28;20054;-80
2022/01/31 09:56:22;;;;;;;61.58;58.28;;;;;;;0.83;100.00;99622.16;4984741;28;20061;-80
2022/01/31 09:58:56;;;;;;;59.30;56.10;;;;;;;0.84;100.00;99629.94;4994266;28;20056;-80
2022/01/31 10:01:32;;;;;;;62.25;58.92;;;;;;;0.84;100.00;99624.59;4982967;28;20064;-80
2022/01/31 10:04:14;;;;;;;59.78;56.55;;;;;;;0.90;100.00;99630.84;4981892;28;20057;-81
2022/01/31 10:06:49;;;;;;;65.95;62.40;;;;;;;0.94;100.00;99631.16;4988076;28;20046;-80
2022/01/31 10:09:24;;;;;;;65.45;61.95;;;;;;;0.92;100.00;99643.97;4983910;28;20442;-80
2022/01/31 10:12:05;;;;;;;67.25;63.65;;;;;;;1.00;100.00;99649.75;4982200;28;20506;-81
2022/01/31 10:17:31;;;;;;;69.82;66.07;;;;;;;1.07;100.00;99652.28;4988752;28;20054;-81
2022/01/31 10:20:08;;;;;;;72.30;68.43;;;;;;;1.16;100.00;99647.31;4988017;28;20072;-80
2022/01/31 10:22:42;;;;;;;77.63;73.50;;;;;;;1.23;100.00;99644.47;4986026;28;20335;-80
2022/01/31 10:25:17;;;;;;;78.82;74.65;;;;;;;1.14;100.00;99634.16;4981147;28;20403;-80
2022/01/31 10:27:53;;;;;;;80.35;76.10;;;;;;;1.13;100.00;99642.44;4993317;28;20064;-80
2022/01/31 10:30:30;;;;;;;81.03;76.72;;;;;;;1.21;100.00;99639.38;4992524;28;20080;-81
2022/01/31 10:33:03;;;;;;;80.65;76.38;;;;;;;1.11;100.00;99639.22;4990741;28;20056;-80
2022/01/31 10:35:39;;;;;;;82.15;77.82;;;;;;;1.17;100.00;99639.06;4985363;28;20290;-80
2022/01/31 10:38:18;;;;;;;88.97;84.28;;;;;;;1.18;100.00;99640.66;4996476;28;20068;-80
2022/01/31 10:44:46;;;;;;;89.63;84.90;;;;;;;1.15;100.00;99643.03;4924172;29;20054;-80
2022/01/31 10:50:50;;;;;;;102.72;97.38;;;;;;;1.37;100.00;99664.56;4993572;28;20061;-81
2022/01/31 10:53:25;;;;;;;112.18;106.38;;;;;;;1.46;100.00;99659.59;4992440;28;20479;-79
2022/01/31 10:55:58;;;;;;;122.15;115.80;;;;;;;1.51;100.00;99665.03;4989770;28;20077;-81
2022/01/31 10:58:31;;;;;;;110.10;104.40;;;;;;;1.49;100.00;99667.16;4995500;28;20053;-81
2022/01/31 11:01:16;;;;;;;107.30;101.75;;;;;;;1.41;100.00;99673.75;4993867;28;20057;-81
2022/01/31 11:03:49;;;;;;;109.63;103.97;;;;;;;1.58;100.00;99687.13;4993277;28;20050;-81
2022/01/31 11:06:24;;;;;;;117.88;111.75;;;;;;;1.56;100.00;99708.03;4992011;28;20054;-81
2022/01/31 11:09:03;;;;;;;120.47;114.20;;;;;;;1.65;100.00;99711.91;4990032;28;20050;-81
2022/01/31 11:11:39;;;;;;;124.32;117.88;;;;;;;1.75;100.00;99705.09;4982477;28;20046;-80
2022/01/31 11:14:09;;;;;;;119.13;112.95;;;;;;;1.79;100.00;99704.34;4998601;28;20050;-80
2022/01/31 11:16:44;;;;;;;116.72;110.70;;;;;;;1.91;100.00;99700.78;4990816;28;20069;-79
2022/01/31 11:19:23;;;;;;;116.25;110.22;;;;;;;1.89;100.00;99701.00;4990576;28;20426;-78
2022/01/31 11:22:01;;;;;;;124.10;117.68;;;;;;;2.03;100.00;99709.50;4981758;28;20410;-77
2022/01/31 11:24:36;;;;;;;130.70;123.90;;;;;;;2.07;100.00;99699.09;4979242;28;20049;-80
2022/01/31 11:27:12;;;;;;;131.65;124.85;;;;;;;2.23;100.00;99716.25;4976633;28;20054;-81
2022/01/31 11:29:47;;;;;;;117.60;111.53;;;;;;;2.26;100.00;99715.75;4981874;28;20046;-78
2022/01/31 11:32:20;;;;;;;113.75;107.90;;;;;;;2.37;100.00;99712.13;4979446;28;20487;-80
2022/01/31 11:34:55;;;;;;;112.07;106.30;;;;;;;2.32;100.00;99709.34;4982798;28;20065;-79
2022/01/31 11:37:25;;;;;;;105.57;100.10;;;;;;;2.33;100.00;99711.78;4978273;28;20069;-80
2022/01/31 11:40:05;;;;;;;106.13;100.65;;;;;;;2.29;100.00;99724.13;4988616;28;20045;-81
2022/01/31 11:42:42;;;;;;;95.10;90.13;;;;;;;2.13;100.00;99733.03;4986787;28;20061;-80
2022/01/31 11:45:18;;;;;;;85.72;81.22;;;;;;;2.15;100.00;99741.63;4992578;28;20058;-79
2022/01/31 11:47:52;;;;;;;65.10;61.60;;;;;;;2.24;100.00;99733.94;4991022;28;20062;-79
2022/01/31 11:50:26;;;;;;;61.42;58.13;;;;;;;2.17;100.00;99737.63;4987722;28;20056;-79
2022/01/31 11:53:02;;;;;;;54.28;51.38;;;;;;;2.05;100.00;99750.34;4986583;28;20412;-81
2022/01/31 11:55:38;;;;;;;59.38;56.17;;;;;;;2.16;100.00;99756.69;4987106;28;20138;-78
2022/01/31 11:58:15;;;;;;;64.53;61.05;;;;;;;2.08;100.00;99751.72;4989521;28;20722;-79
2022/01/31 12:00:49;;;;;;;60.63;57.40;;;;;;;2.13;100.00;99757.97;4984796;28;20057;-81
2022/01/31 12:03:18;;;;;;;62.05;58.75;;;;;;;2.11;100.00;99761.97;4986166;28;20050;-80
2022/01/31 12:05:52;;;;;;;63.25;59.85;;;;;;;2.07;100.00;99763.50;4988251;28;20053;-81